sensor_id;sensor_type;location;lat;lon;timestamp;pressure;altitude;pressure_sealevel;temperature;humidity
6034;BME280;3045;43.226;27.858;2022-10-31T00:00:07;-11765.38;;;14.69;100.00
6034;BME280;3045;43.226;27.858;2022-10-31T00:02:35;-11447.09;;;14.86;100.00
6034;BME280;3045;43.226;27.858;2022-10-31T00:05:01;-10806.06;;;14.88;100.00
6034;BME280;3045;43.226;27.858;2022-10-31T00:07:28;-11767.22;;;14.83;100.00
6034;BME280;3045;43.226;27.858;2022-10-31T00:09:57;-12089.69;;;14.96;100.00
6034;BME280;3045;43.226;27.858;2022-10-31T00:12:24;-11446.97;;;14.85;100.00
6034;BME280;3045;43.226;27.858;2022-10-31T00:14:51;-10487.94;;;15.11;100.00
6034;BME280;3045;43.226;27.858;2022-10-31T00:17:18;-8563.22;;;15.20;100.00
6034;BME280;3045;43.226;27.858;2022-10-31T00:19:46;-7600.50;;;15.29;100.00
6034;BME280;3045;43.226;27.858;2022-10-31T00:22:13;-6957.50;;;15.20;100.00
6034;BME280;3045;43.226;27.858;2022-10-31T00:24:40;-5994.19;;;15.32;100.00
6034;BME280;3045;43.226;27.858;2022-10-31T00:27:08;-5351.53;;;15.37;100.00
6034;BME280;3045;43.226;27.858;2022-10-31T00:29:35;-4386.91;;;15.33;100.00
6034;BME280;3045;43.226;27.858;2022-10-31T00:32:02;-3743.75;;;15.30;100.00
6034;BME280;3045;43.226;27.858;2022-10-31T00:34:28;-4065.38;;;15.35;100.00
6034;BME280;3045;43.226;27.858;2022-10-31T00:36:55;-4708.66;;;15.43;100.00
6034;BME280;3045;43.226;27.858;2022-10-31T00:39:22;-4386.94;;;15.34;100.00
6034;BME280;3045;43.226;27.858;2022-10-31T00:41:49;-5350.88;;;15.17;100.00
6034;BME280;3045;43.226;27.858;2022-10-31T00:44:17;-5351.34;;;15.31;100.00
6034;BME280;3045;43.226;27.858;2022-10-31T00:46:44;-5350.44;;;15.04;100.00
6034;BME280;3045;43.226;27.858;2022-10-31T00:49:11;-7918.81;;;14.90;100.00
6034;BME280;3045;43.226;27.858;2022-10-31T00:51:38;-10486.13;;;14.95;100.00
6034;BME280;3045;43.226;27.858;2022-10-31T00:54:05;-9845.94;;;15.08;100.00
6034;BME280;3045;43.226;27.858;2022-10-31T00:56:32;-9526.50;;;15.23;100.00
6034;BME280;3045;43.226;27.858;2022-10-31T00:58:59;-8885.19;;;15.31;100.00
6034;BME280;3045;43.226;27.858;2022-10-31T01:01:27;-7600.66;;;15.32;100.00
6034;BME280;3045;43.226;27.858;2022-10-31T01:03:54;-7279.50;;;15.33;100.00
6034;BME280;3045;43.226;27.858;2022-10-31T01:06:21;-6636.16;;;15.19;100.00
6034;BME280;3045;43.226;27.858;2022-10-31T01:08:48;-6957.09;;;15.14;100.00
6034;BME280;3045;43.226;27.858;2022-10-31T01:11:17;-7279.09;;;15.26;100.00
6034;BME280;3045;43.226;27.858;2022-10-31T01:13:44;-7279.53;;;15.33;100.00
6034;BME280;3045;43.226;27.858;2022-10-31T01:16:12;-7920.66;;;15.15;100.00
6034;BME280;3045;43.226;27.858;2022-10-31T01:18:41;-8242.16;;;15.21;100.00
6034;BME280;3045;43.226;27.858;2022-10-31T01:21:10;-8563.09;;;15.19;100.00
6034;BME280;3045;43.226;27.858;2022-10-31T01:23:37;-8884.88;;;15.27;100.00
6034;BME280;3045;43.226;27.858;2022-10-31T01:26:07;-7920.88;;;15.18;100.00
6034;BME280;3045;43.226;27.858;2022-10-31T01:28:35;-8242.03;;;15.19;100.00
6034;BME280;3045;43.226;27.858;2022-10-31T01:31:04;-8242.00;;;15.19;100.00
6034;BME280;3045;43.226;27.858;2022-10-31T01:33:31;-8243.38;;;15.36;100.00
6034;BME280;3045;43.226;27.858;2022-10-31T01:36:00;-7279.38;;;15.31;100.00
6034;BME280;3045;43.226;27.858;2022-10-31T01:38:27;-5672.50;;;15.25;100.00
6034;BME280;3045;43.226;27.858;2022-10-31T01:40:54;-7920.59;;;15.15;100.00
6034;BME280;3045;43.226;27.858;2022-10-31T01:43:21;-7600.78;;;15.33;100.00
6034;BME280;3045;43.226;27.858;2022-10-31T01:45:52;-7601.28;;;15.41;100.00
6034;BME280;3045;43.226;27.858;2022-10-31T01:48:29;-6315.94;;;15.40;100.00
6034;BME280;3045;43.226;27.858;2022-10-31T01:50:56;-5351.84;;;15.47;100.00
6034;BME280;3045;43.226;27.858;2022-10-31T01:53:25;-5030.22;;;15.43;100.00
6034;BME280;3045;43.226;27.858;2022-10-31T01:55:52;-4708.88;;;15.53;100.00
6034;BME280;3045;43.226;27.858;2022-10-31T01:58:23;-5351.78;;;15.45;100.00
6034;BME280;3045;43.226;27.858;2022-10-31T02:00:54;-6637.31;;;15.40;100.00
6034;BME280;3045;43.226;27.858;2022-10-31T02:03:22;-6637.34;;;15.41;100.00
6034;BME280;3045;43.226;27.858;2022-10-31T02:05:51;-7600.50;;;15.29;100.00
6034;BME280;3045;43.226;27.858;2022-10-31T02:08:23;-7921.66;;;15.29;100.00
6034;BME280;3045;43.226;27.858;2022-10-31T02:10:54;-7601.31;;;15.41;100.00
6034;BME280;3045;43.226;27.858;2022-10-31T02:13:22;-6316.28;;;15.47;100.00
6034;BME280;3045;43.226;27.858;2022-10-31T02:15:52;-5351.81;;;15.46;100.00
6034;BME280;3045;43.226;27.858;2022-10-31T02:18:20;-3743.81;;;15.40;100.00
6034;BME280;3045;43.226;27.858;2022-10-31T02:20:57;-4387.13;;;15.45;100.00
6034;BME280;3045;43.226;27.858;2022-10-31T02:23:58;-4065.66;;;15.58;100.00
6034;BME280;3045;43.226;27.858;2022-10-31T02:26:41;-3100.56;;;15.18;100.00
6034;BME280;3045;43.226;27.858;2022-10-31T02:29:31;-1491.16;;;15.53;100.00
6034;BME280;3045;43.226;27.858;2022-10-31T02:32:04;-846.84;;;15.63;100.00
6034;BME280;3045;43.226;27.858;2022-10-31T02:34:37;441.91;;;15.68;100.00
6034;BME280;3045;43.226;27.858;2022-10-31T02:37:12;1408.25;;;15.63;100.00
6034;BME280;3045;43.226;27.858;2022-10-31T02:39:46;2373.44;;;15.44;100.00
6034;BME280;3045;43.226;27.858;2022-10-31T02:42:26;-204.16;;;15.34;100.00
6034;BME280;3045;43.226;27.858;2022-10-31T02:45:00;-5029.53;;;15.19;100.00
6034;BME280;3045;43.226;27.858;2022-10-31T02:47:37;-7599.88;;;15.20;100.00
6034;BME280;3045;43.226;27.858;2022-10-31T02:50:07;-8241.22;;;15.08;100.00
6034;BME280;3045;43.226;27.858;2022-10-31T02:52:35;-6315.44;;;15.30;100.00
6034;BME280;3045;43.226;27.858;2022-10-31T02:55:11;-8242.59;;;15.26;100.00
6034;BME280;3045;43.226;27.858;2022-10-31T02:57:40;-11130.47;;;15.18;100.00
6034;BME280;3045;43.226;27.858;2022-10-31T03:00:09;-10490.53;;;15.33;100.00
6034;BME280;3045;43.226;27.858;2022-10-31T03:02:57;-11452.38;;;15.27;100.00
6034;BME280;3045;43.226;27.858;2022-10-31T03:05:35;-12736.50;;;15.34;100.00
6034;BME280;3045;43.226;27.858;2022-10-31T03:08:11;-12417.59;;;15.47;100.00
6034;BME280;3045;43.226;27.858;2022-10-31T03:10:44;-12738.88;;;15.50;100.00
6034;BME280;3045;43.226;27.858;2022-10-31T03:13:21;-12098.19;;;15.57;100.00
6034;BME280;3045;43.226;27.858;2022-10-31T03:15:52;-11773.56;;;15.30;100.00
6034;BME280;3045;43.226;27.858;2022-10-31T03:18:27;-12412.31;;;15.11;100.00
6034;BME280;3045;43.226;27.858;2022-10-31T03:20:59;-12734.31;;;15.20;100.00
6034;BME280;3045;43.226;27.858;2022-10-31T03:23:28;-13693.25;;;15.02;100.00
6034;BME280;3045;43.226;27.858;2022-10-31T03:25:58;-13371.81;;;14.96;100.00
6034;BME280;3045;43.226;27.858;2022-10-31T03:28:33;-13692.94;;;15.00;100.00
6034;BME280;3045;43.226;27.858;2022-10-31T03:31:03;-14332.88;;;14.95;100.00
6034;BME280;3045;43.226;27.858;2022-10-31T03:33:35;-14650.84;;;14.82;100.00
6034;BME280;3045;43.226;27.858;2022-10-31T03:36:04;-15610.63;;;14.78;100.00
6034;BME280;3045;43.226;27.858;2022-10-31T03:38:34;-14008.00;;;14.69;100.00
6034;BME280;3045;43.226;27.858;2022-10-31T03:41:05;-13365.47;;;14.57;100.00
6034;BME280;3045;43.226;27.858;2022-10-31T03:43:37;-17515.22;;;14.08;100.00
6034;BME280;3045;43.226;27.858;2022-10-31T03:46:07;-18152.88;;;13.94;100.00
6034;BME280;3045;43.226;27.858;2022-10-31T03:48:35;-18153.25;;;13.96;100.00
6034;BME280;3045;43.226;27.858;2022-10-31T03:51:08;-18153.34;;;13.96;100.00
6034;BME280;3045;43.226;27.858;2022-10-31T03:53:40;-18151.06;;;13.87;100.00
6034;BME280;3045;43.226;27.858;2022-10-31T03:56:13;-18151.91;;;13.90;100.00
6034;BME280;3045;43.226;27.858;2022-10-31T03:58:48;-18161.28;;;14.30;100.00
6034;BME280;3045;43.226;27.858;2022-10-31T04:01:21;-18159.38;;;14.22;100.00
6034;BME280;3045;43.226;27.858;2022-10-31T04:03:50;-18164.91;;;14.45;100.00
6034;BME280;3045;43.226;27.858;2022-10-31T04:06:18;-18166.88;;;14.61;100.00
6034;BME280;3045;43.226;27.858;2022-10-31T04:08:49;-16883.63;;;14.44;100.00
6034;BME280;3045;43.226;27.858;2022-10-31T04:11:20;-15288.81;;;14.69;100.00
6034;BME280;3045;43.226;27.858;2022-10-31T04:13:49;-13690.56;;;14.86;100.00
6034;BME280;3045;43.226;27.858;2022-10-31T04:16:16;-12087.69;;;14.82;100.00
6034;BME280;3045;43.226;27.858;2022-10-31T04:18:44;-11450.00;;;15.08;100.00
6034;BME280;3045;43.226;27.858;2022-10-31T04:21:12;-8884.41;;;15.22;100.00
6034;BME280;3045;43.226;27.858;2022-10-31T04:23:39;-7921.25;;;15.23;100.00
6034;BME280;3045;43.226;27.858;2022-10-31T04:26:07;-7279.38;;;15.31;100.00
6034;BME280;3045;43.226;27.858;2022-10-31T04:28:34;-7921.84;;;15.31;100.00
6034;BME280;3045;43.226;27.858;2022-10-31T04:31:01;-7279.00;;;15.25;100.00
6034;BME280;3045;43.226;27.858;2022-10-31T04:33:28;-6637.44;;;15.42;100.00
6034;BME280;3045;43.226;27.858;2022-10-31T04:35:55;-6315.28;;;15.27;100.00
6034;BME280;3045;43.226;27.858;2022-10-31T04:38:23;-7279.31;;;15.30;100.00
6034;BME280;3045;43.226;27.858;2022-10-31T04:40:50;-6958.47;;;15.37;100.00
6034;BME280;3045;43.226;27.858;2022-10-31T04:43:17;-5351.63;;;15.40;100.00
6034;BME280;3045;43.226;27.858;2022-10-31T04:45:44;-1169.38;;;15.48;100.00
6034;BME280;3045;43.226;27.858;2022-10-31T04:48:11;1729.72;;;15.53;100.00
6034;BME280;3045;43.226;27.858;2022-10-31T04:50:38;4308.63;;;15.52;100.00
6034;BME280;3045;43.226;27.858;2022-10-31T04:53:05;9795.13;;;15.50;100.00
6034;BME280;3045;43.226;27.858;2022-10-31T04:55:34;17233.47;;;15.51;100.00
6034;BME280;3045;43.226;27.858;2022-10-31T04:58:02;21123.22;;;15.58;100.00
6034;BME280;3045;43.226;27.858;2022-10-31T05:00:29;28265.66;;;15.64;100.00
6034;BME280;3045;43.226;27.858;2022-10-31T05:02:57;31844.00;;;15.68;100.00
6034;BME280;3045;43.226;27.858;2022-10-31T05:05:26;36069.06;;;15.59;100.00
6034;BME280;3045;43.226;27.858;2022-10-31T05:07:53;35101.41;;;15.73;100.00
6034;BME280;3045;43.226;27.858;2022-10-31T05:10:21;36071.31;;;15.62;100.00
6034;BME280;3045;43.226;27.858;2022-10-31T05:12:52;32178.81;;;15.85;100.00
6034;BME280;3045;43.226;27.858;2022-10-31T05:15:20;26005.75;;;15.92;100.00
6034;BME280;3045;43.226;27.858;2022-10-31T05:17:48;29906.47;;;15.93;100.00
6034;BME280;3045;43.226;27.858;2022-10-31T05:20:16;36405.38;;;15.75;100.00
6034;BME280;3045;43.226;27.858;2022-10-31T05:22:44;38336.31;;;15.39;100.00
6034;BME280;3045;43.226;27.858;2022-10-31T05:25:11;38995.13;;;15.50;100.00
6034;BME280;3045;43.226;27.858;2022-10-31T05:27:39;38675.44;;;15.59;100.00
6034;BME280;3045;43.226;27.858;2022-10-31T05:30:09;40976.19;;;15.85;100.00
6034;BME280;3045;43.226;27.858;2022-10-31T05:32:38;53381.56;;;15.69;100.00
6034;BME280;3045;43.226;27.858;2022-10-31T05:35:06;48173.84;;;16.00;100.00
6034;BME280;3045;43.226;27.858;2022-10-31T05:37:34;44231.69;;;15.74;100.00
6034;BME280;3045;43.226;27.858;2022-10-31T05:40:01;42288.84;;;15.95;100.00
6034;BME280;3045;43.226;27.858;2022-10-31T05:42:28;45568.66;;;16.13;100.00
6034;BME280;3045;43.226;27.858;2022-10-31T05:44:55;54099.16;;;16.37;100.00
6034;BME280;3045;43.226;27.858;2022-10-31T05:47:24;54458.09;;;16.70;100.00
6034;BME280;3045;43.226;27.858;2022-10-31T05:49:51;73937.84;;;17.28;100.00
6034;BME280;3045;43.226;27.858;2022-10-31T05:52:19;115530.81;;;17.65;100.00
6034;BME280;3045;43.226;27.858;2022-10-31T05:54:46;150553.22;;;17.97;100.00
6034;BME280;3045;43.226;27.858;2022-10-31T05:57:13;150569.78;;;18.03;100.00
6034;BME280;3045;43.226;27.858;2022-10-31T05:59:40;147676.44;;;17.85;100.00
6034;BME280;3045;43.226;27.858;2022-10-31T06:02:07;150529.06;;;17.87;100.00
6034;BME280;3045;43.226;27.858;2022-10-31T06:04:35;150504.97;;;17.77;100.00
6034;BME280;3045;43.226;27.858;2022-10-31T06:07:02;150461.75;;;17.60;100.00
6034;BME280;3045;43.226;27.858;2022-10-31T06:09:29;150446.41;;;17.54;100.00
6034;BME280;3045;43.226;27.858;2022-10-31T06:11:56;141783.31;;;17.59;100.00
6034;BME280;3045;43.226;27.858;2022-10-31T06:14:23;138661.44;;;17.58;100.00
6034;BME280;3045;43.226;27.858;2022-10-31T06:16:50;136991.97;;;17.64;100.00
6034;BME280;3045;43.226;27.858;2022-10-31T06:19:17;138697.75;;;17.74;100.00
6034;BME280;3045;43.226;27.858;2022-10-31T06:21:45;150511.28;;;17.80;100.00
6034;BME280;3045;43.226;27.858;2022-10-31T06:24:12;150551.97;;;17.96;100.00
6034;BME280;3045;43.226;27.858;2022-10-31T06:26:40;150574.84;;;18.05;100.00
6034;BME280;3045;43.226;27.858;2022-10-31T06:29:07;150614.25;;;18.21;100.00
6034;BME280;3045;43.226;27.858;2022-10-31T06:31:34;150646.03;;;18.34;100.00
6034;BME280;3045;43.226;27.858;2022-10-31T06:34:01;150699.50;;;18.55;100.00
6034;BME280;3045;43.226;27.858;2022-10-31T06:36:28;150797.44;;;18.94;100.00
6034;BME280;3045;43.226;27.858;2022-10-31T06:38:56;150881.41;;;19.27;100.00
6034;BME280;3045;43.226;27.858;2022-10-31T06:41:23;151036.75;;;19.89;100.00
6034;BME280;3045;43.226;27.858;2022-10-31T06:43:50;151204.84;;;20.56;100.00
6034;BME280;3045;43.226;27.858;2022-10-31T06:46:17;151294.03;;;20.91;100.00
6034;BME280;3045;43.226;27.858;2022-10-31T06:48:44;151338.63;;;21.09;100.00
6034;BME280;3045;43.226;27.858;2022-10-31T06:51:10;151375.59;;;21.23;100.00
6034;BME280;3045;43.226;27.858;2022-10-31T06:53:37;151421.50;;;21.41;100.00
6034;BME280;3045;43.226;27.858;2022-10-31T06:56:06;151438.03;;;21.48;100.00
6034;BME280;3045;43.226;27.858;2022-10-31T06:58:33;151404.91;;;21.35;100.00
6034;BME280;3045;43.226;27.858;2022-10-31T07:01:00;151360.34;;;21.17;100.00
6034;BME280;3045;43.226;27.858;2022-10-31T07:03:28;151277.44;;;20.84;100.00
6034;BME280;3045;43.226;27.858;2022-10-31T07:05:55;151288.91;;;20.89;100.00
6034;BME280;3045;43.226;27.858;2022-10-31T07:08:23;151189.59;;;20.49;100.00
6034;BME280;3045;43.226;27.858;2022-10-31T07:10:51;151133.50;;;20.27;100.00
6034;BME280;3045;43.226;27.858;2022-10-31T07:13:20;151133.50;;;20.27;100.00
6034;BME280;3045;43.226;27.858;2022-10-31T07:15:51;151201.00;;;20.54;100.00
6034;BME280;3045;43.226;27.858;2022-10-31T07:18:19;151199.78;;;20.54;100.00
6034;BME280;3045;43.226;27.858;2022-10-31T07:20:46;151203.56;;;20.55;100.00
6034;BME280;3045;43.226;27.858;2022-10-31T07:23:13;151184.47;;;20.47;100.00
6034;BME280;3045;43.226;27.858;2022-10-31T07:25:41;151184.47;;;20.47;100.00
6034;BME280;3045;43.226;27.858;2022-10-31T07:28:07;151179.38;;;20.45;100.00
6034;BME280;3045;43.226;27.858;2022-10-31T07:30:36;151194.66;;;20.51;100.00
6034;BME280;3045;43.226;27.858;2022-10-31T07:33:03;151194.66;;;20.51;100.00
6034;BME280;3045;43.226;27.858;2022-10-31T07:35:30;151291.47;;;20.90;100.00
6034;BME280;3045;43.226;27.858;2022-10-31T07:38:05;151292.75;;;20.90;100.00
6034;BME280;3045;43.226;27.858;2022-10-31T07:40:32;151334.78;;;21.07;100.00
6034;BME280;3045;43.226;27.858;2022-10-31T07:42:59;151398.53;;;21.32;100.00
6034;BME280;3045;43.226;27.858;2022-10-31T07:45:26;151421.50;;;21.41;100.00
6034;BME280;3045;43.226;27.858;2022-10-31T07:47:57;151464.81;;;21.59;100.00
6034;BME280;3045;43.226;27.858;2022-10-31T07:50:25;151667.56;;;22.39;100.00
6034;BME280;3045;43.226;27.858;2022-10-31T07:52:59;151841.09;;;23.08;100.00
6034;BME280;3045;43.226;27.858;2022-10-31T07:55:26;152100.16;;;24.10;100.00
6034;BME280;3045;43.226;27.858;2022-10-31T07:57:58;152440.06;;;25.45;100.00
6034;BME280;3045;43.226;27.858;2022-10-31T08:00:25;152711.09;;;26.52;100.00
6034;BME280;3045;43.226;27.858;2022-10-31T08:02:58;152958.06;;;27.50;100.00
6034;BME280;3045;43.226;27.858;2022-10-31T08:05:26;152849.31;;;27.07;100.00
6034;BME280;3045;43.226;27.858;2022-10-31T08:07:53;152832.66;;;27.00;100.00
6034;BME280;3045;43.226;27.858;2022-10-31T08:10:20;152795.59;;;26.86;100.00
6034;BME280;3045;43.226;27.858;2022-10-31T08:12:54;152955.53;;;27.49;100.00
6034;BME280;3045;43.226;27.858;2022-10-31T08:15:21;153151.41;;;28.26;95.14
6034;BME280;3045;43.226;27.858;2022-10-31T08:17:48;153302.50;;;28.86;92.28
6034;BME280;3045;43.226;27.858;2022-10-31T08:20:17;153593.38;;;30.01;83.79
6034;BME280;3045;43.226;27.858;2022-10-31T08:22:52;153492.13;;;29.61;79.92
6034;BME280;3045;43.226;27.858;2022-10-31T08:25:19;153561.34;;;29.88;80.74
6034;BME280;3045;43.226;27.858;2022-10-31T08:27:49;153501.09;;;29.64;83.02
6034;BME280;3045;43.226;27.858;2022-10-31T08:30:16;153401.09;;;29.25;85.66
6034;BME280;3045;43.226;27.858;2022-10-31T08:32:43;153274.34;;;28.75;88.58
6034;BME280;3045;43.226;27.858;2022-10-31T08:35:10;153225.66;;;28.55;91.21
6034;BME280;3045;43.226;27.858;2022-10-31T08:37:38;153274.34;;;28.75;91.52
6034;BME280;3045;43.226;27.858;2022-10-31T08:40:06;153321.72;;;28.93;89.60
6034;BME280;3045;43.226;27.858;2022-10-31T08:42:33;153457.53;;;29.47;87.87
6034;BME280;3045;43.226;27.858;2022-10-31T08:45:00;153561.34;;;29.88;83.80
6034;BME280;3045;43.226;27.858;2022-10-31T08:47:27;153681.81;;;30.35;79.34
6034;BME280;3045;43.226;27.858;2022-10-31T08:49:54;153717.78;;;30.50;79.98
6034;BME280;3045;43.226;27.858;2022-10-31T08:52:23;153884.47;;;31.15;75.18
6034;BME280;3045;43.226;27.858;2022-10-31T08:54:52;154033.34;;;31.74;73.87
6034;BME280;3045;43.226;27.858;2022-10-31T08:57:19;154164.19;;;32.26;68.75
6034;BME280;3045;43.226;27.858;2022-10-31T08:59:46;154290.03;;;32.75;67.02
6034;BME280;3045;43.226;27.858;2022-10-31T09:02:13;154369.59;;;33.06;65.35
6034;BME280;3045;43.226;27.858;2022-10-31T09:04:40;154359.34;;;33.02;62.49
6034;BME280;3045;43.226;27.858;2022-10-31T09:07:07;154228.34;;;32.51;64.33
6034;BME280;3045;43.226;27.858;2022-10-31T09:09:34;154228.34;;;32.51;65.16
6034;BME280;3045;43.226;27.858;2022-10-31T09:12:02;154435.13;;;33.32;61.23
6034;BME280;3045;43.226;27.858;2022-10-31T09:14:29;154151.41;;;32.21;63.25
6034;BME280;3045;43.226;27.858;2022-10-31T09:16:56;154069.22;;;31.88;65.22
6034;BME280;3045;43.226;27.858;2022-10-31T09:19:23;153998.69;;;31.60;66.39
6034;BME280;3045;43.226;27.858;2022-10-31T09:21:53;153902.44;;;31.22;68.00
6034;BME280;3045;43.226;27.858;2022-10-31T09:24:22;153756.22;;;30.65;70.76
6034;BME280;3045;43.226;27.858;2022-10-31T09:26:50;153653.63;;;30.24;73.21
6034;BME280;3045;43.226;27.858;2022-10-31T09:29:18;153504.94;;;29.66;76.83
6034;BME280;3045;43.226;27.858;2022-10-31T09:31:45;153428.09;;;29.35;78.77
6034;BME280;3045;43.226;27.858;2022-10-31T09:34:12;153393.44;;;29.22;80.39
6034;BME280;3045;43.226;27.858;2022-10-31T09:36:39;153506.25;;;29.66;78.45
6034;BME280;3045;43.226;27.858;2022-10-31T09:39:06;153419.13;;;29.32;78.00
6034;BME280;3045;43.226;27.858;2022-10-31T09:41:47;153242.28;;;28.62;81.54
6034;BME280;3045;43.226;27.858;2022-10-31T09:44:24;153287.16;;;28.80;84.31
6034;BME280;3045;43.226;27.858;2022-10-31T09:46:59;153433.19;;;29.37;80.49
6034;BME280;3045;43.226;27.858;2022-10-31T09:49:38;153525.44;;;29.74;77.05
6034;BME280;3045;43.226;27.858;2022-10-31T09:52:12;153547.22;;;29.82;75.46
6034;BME280;3045;43.226;27.858;2022-10-31T09:54:45;153729.31;;;30.54;71.58
6034;BME280;3045;43.226;27.858;2022-10-31T09:57:15;153804.94;;;30.84;68.91
6034;BME280;3045;43.226;27.858;2022-10-31T09:59:47;153869.09;;;31.09;68.50
6034;BME280;3045;43.226;27.858;2022-10-31T10:02:20;153956.31;;;31.44;66.90
6034;BME280;3045;43.226;27.858;2022-10-31T10:04:56;154107.72;;;32.03;63.34
6034;BME280;3045;43.226;27.858;2022-10-31T10:07:35;154183.47;;;32.33;61.06
6034;BME280;3045;43.226;27.858;2022-10-31T10:10:14;154297.72;;;32.78;59.50
6034;BME280;3045;43.226;27.858;2022-10-31T10:12:52;154417.16;;;33.25;57.84
6034;BME280;3045;43.226;27.858;2022-10-31T10:15:35;154269.50;;;32.67;57.89
6034;BME280;3045;43.226;27.858;2022-10-31T10:18:12;154215.56;;;32.46;57.62
6034;BME280;3045;43.226;27.858;2022-10-31T10:20:48;153975.53;;;31.51;61.01
6034;BME280;3045;43.226;27.858;2022-10-31T10:23:44;153920.38;;;31.29;63.48
6034;BME280;3045;43.226;27.858;2022-10-31T10:26:17;154183.47;;;32.33;58.13
6034;BME280;3045;43.226;27.858;2022-10-31T10:28:45;154446.69;;;33.37;54.73
6034;BME280;3045;43.226;27.858;2022-10-31T10:31:18;154870.75;;;35.04;48.78
6034;BME280;3045;43.226;27.858;2022-10-31T10:33:57;154555.91;;;33.80;51.29
6034;BME280;3045;43.226;27.858;2022-10-31T10:36:28;154663.84;;;34.22;51.26
6034;BME280;3045;43.226;27.858;2022-10-31T10:39:01;154987.75;;;35.50;47.01
6034;BME280;3045;43.226;27.858;2022-10-31T10:41:31;154770.47;;;34.64;48.00
6034;BME280;3045;43.226;27.858;2022-10-31T10:43:58;154531.47;;;33.70;50.53
6034;BME280;3045;43.226;27.858;2022-10-31T10:46:32;153851.13;;;31.02;59.44
6034;BME280;3045;43.226;27.858;2022-10-31T10:49:29;153187.22;;;28.40;75.48
6034;BME280;3045;43.226;27.858;2022-10-31T10:51:59;152969.56;;;27.54;84.00
6034;BME280;3045;43.226;27.858;2022-10-31T10:54:41;153087.31;;;28.01;84.67
6034;BME280;3045;43.226;27.858;2022-10-31T10:57:22;152859.53;;;27.11;86.82
6034;BME280;3045;43.226;27.858;2022-10-31T10:59:54;152767.38;;;26.74;90.71
6034;BME280;3045;43.226;27.858;2022-10-31T11:02:25;153323.03;;;28.94;77.26
6034;BME280;3045;43.226;27.858;2022-10-31T11:04:54;153598.53;;;30.03;69.08
6034;BME280;3045;43.226;27.858;2022-10-31T11:07:21;153617.72;;;30.10;71.11
6034;BME280;3045;43.226;27.858;2022-10-31T11:09:48;153282.00;;;28.78;77.90
6034;BME280;3045;43.226;27.858;2022-10-31T11:12:21;152690.66;;;26.44;91.85
6034;BME280;3045;43.226;27.858;2022-10-31T11:14:51;152295.66;;;24.88;100.00
6034;BME280;3045;43.226;27.858;2022-10-31T11:17:26;152136.00;;;24.25;100.00
6034;BME280;3045;43.226;27.858;2022-10-31T11:20:24;152110.38;;;24.14;100.00
6034;BME280;3045;43.226;27.858;2022-10-31T11:23:02;152064.47;;;23.96;100.00
6034;BME280;3045;43.226;27.858;2022-10-31T11:25:29;152061.91;;;23.95;100.00
6034;BME280;3045;43.226;27.858;2022-10-31T11:28:00;151984.03;;;23.64;100.00
6034;BME280;3045;43.226;27.858;2022-10-31T11:30:28;151958.53;;;23.54;100.00
6034;BME280;3045;43.226;27.858;2022-10-31T11:32:58;151879.34;;;23.23;100.00
6034;BME280;3045;43.226;27.858;2022-10-31T11:35:25;151927.84;;;23.42;100.00
6034;BME280;3045;43.226;27.858;2022-10-31T11:37:53;151921.44;;;23.40;100.00
6034;BME280;3045;43.226;27.858;2022-10-31T11:40:22;151927.84;;;23.42;100.00
6034;BME280;3045;43.226;27.858;2022-10-31T11:42:52;151834.69;;;23.05;100.00
6034;BME280;3045;43.226;27.858;2022-10-31T11:45:29;151855.09;;;23.13;100.00
6034;BME280;3045;43.226;27.858;2022-10-31T11:48:00;151852.56;;;23.12;100.00
6034;BME280;3045;43.226;27.858;2022-10-31T11:50:32;151875.50;;;23.21;100.00
6034;BME280;3045;43.226;27.858;2022-10-31T11:53:02;151821.91;;;23.00;100.00
6034;BME280;3045;43.226;27.858;2022-10-31T11:55:33;151755.63;;;22.74;100.00
6034;BME280;3045;43.226;27.858;2022-10-31T11:58:00;151761.97;;;22.76;100.00
6034;BME280;3045;43.226;27.858;2022-10-31T12:00:29;151823.19;;;23.01;100.00
6034;BME280;3045;43.226;27.858;2022-10-31T12:03:15;151813.00;;;22.97;100.00
6034;BME280;3045;43.226;27.858;2022-10-31T12:05:51;151747.94;;;22.71;100.00
6034;BME280;3045;43.226;27.858;2022-10-31T12:08:20;151742.84;;;22.69;100.00
6034;BME280;3045;43.226;27.858;2022-10-31T12:11:08;151679.03;;;22.44;100.00
6034;BME280;3045;43.226;27.858;2022-10-31T12:13:39;151695.59;;;22.50;100.00
6034;BME280;3045;43.226;27.858;2022-10-31T12:16:16;151724.94;;;22.62;100.00
6034;BME280;3045;43.226;27.858;2022-10-31T12:18:56;151690.53;;;22.48;100.00
6034;BME280;3045;43.226;27.858;2022-10-31T12:21:39;151666.28;;;22.39;100.00
6034;BME280;3045;43.226;27.858;2022-10-31T12:24:20;151709.66;;;22.56;100.00
6034;BME280;3045;43.226;27.858;2022-10-31T12:27:02;151760.69;;;22.76;100.00
6034;BME280;3045;43.226;27.858;2022-10-31T12:29:44;151740.25;;;22.68;100.00
6034;BME280;3045;43.226;27.858;2022-10-31T12:32:26;151750.50;;;22.72;100.00
6034;BME280;3045;43.226;27.858;2022-10-31T12:35:21;151796.44;;;22.90;100.00
6034;BME280;3045;43.226;27.858;2022-10-31T12:38:03;151791.31;;;22.88;100.00
6034;BME280;3045;43.226;27.858;2022-10-31T12:40:51;151821.91;;;23.00;100.00
6034;BME280;3045;43.226;27.858;2022-10-31T12:43:34;151830.88;;;23.04;100.00
6034;BME280;3045;43.226;27.858;2022-10-31T12:46:04;151850.00;;;23.11;100.00
6034;BME280;3045;43.226;27.858;2022-10-31T12:48:56;151847.44;;;23.10;100.00
6034;BME280;3045;43.226;27.858;2022-10-31T12:51:36;151865.28;;;23.17;100.00
6034;BME280;3045;43.226;27.858;2022-10-31T12:54:32;151885.72;;;23.26;100.00
6034;BME280;3045;43.226;27.858;2022-10-31T12:57:09;151820.69;;;23.00;100.00
6034;BME280;3045;43.226;27.858;2022-10-31T12:59:42;151796.44;;;22.90;100.00
6034;BME280;3045;43.226;27.858;2022-10-31T13:02:15;151736.41;;;22.66;100.00
6034;BME280;3045;43.226;27.858;2022-10-31T13:04:49;151737.69;;;22.67;100.00
6034;BME280;3045;43.226;27.858;2022-10-31T13:07:22;151742.84;;;22.69;100.00
6034;BME280;3045;43.226;27.858;2022-10-31T13:09:56;151713.50;;;22.57;100.00
6034;BME280;3045;43.226;27.858;2022-10-31T13:12:27;151673.91;;;22.42;100.00